createdAt,value
2016-12-30T00:00:43.466Z,76.57
2016-12-30T00:01:43.456Z,76.57
2016-12-30T00:02:43.431Z,76.28
2016-12-30T00:03:58.328Z,76.76
2016-12-30T00:04:43.393Z,76.38
2016-12-30T00:05:43.385Z,76.57
2016-12-30T00:06:43.365Z,76.57
2016-12-30T00:07:43.351Z,76.66
2016-12-30T00:08:43.333Z,76.57
2016-12-30T00:09:43.309Z,76.57
2016-12-30T00:10:43.294Z,76.28
2016-12-30T00:12:43.271Z,76.38
2016-12-30T00:13:43.249Z,76.57
2016-12-30T00:14:43.225Z,76.47
2016-12-30T00:15:43.208Z,76.47
2016-12-30T00:16:43.194Z,76.47
2016-12-30T00:17:43.177Z,76.57
2016-12-30T00:19:43.140Z,76.57
2016-12-30T00:20:43.118Z,76.66
2016-12-30T00:21:43.110Z,76.76
2016-12-30T00:23:43.070Z,77.23
2016-12-30T00:24:43.057Z,77.23
2016-12-30T00:25:43.035Z,77.23
2016-12-30T00:26:43.022Z,77.13
2016-12-30T00:27:43.001Z,76.85
2016-12-30T00:28:42.992Z,76.85
2016-12-30T00:29:42.974Z,76.95
2016-12-30T00:30:42.959Z,77.04
2016-12-30T00:31:42.936Z,76.95
2016-12-30T00:32:42.914Z,76.85
2016-12-30T00:33:42.897Z,77.32
2016-12-30T00:34:42.886Z,77.04
2016-12-30T00:35:42.866Z,77.17
2016-12-30T00:36:42.846Z,77.17
2016-12-30T00:37:42.835Z,77.36
2016-12-30T00:38:42.809Z,77.42
2016-12-30T00:39:42.800Z,77.51
2016-12-30T00:40:42.781Z,77.04
2016-12-30T00:41:42.766Z,77.32
2016-12-30T00:42:42.743Z,77.51
2016-12-30T00:43:42.725Z,77.32
2016-12-30T00:44:42.715Z,76.95
2016-12-30T00:45:42.699Z,76.95
2016-12-30T00:46:42.677Z,77.04
2016-12-30T00:47:42.661Z,76.98
2016-12-30T00:48:42.643Z,76.89
2016-12-30T00:49:42.629Z,77.17
2016-12-30T00:50:42.603Z,77.42
2016-12-30T00:51:42.588Z,77.13
2016-12-30T00:52:42.575Z,77.17
2016-12-30T00:53:42.554Z,77.26
2016-12-30T00:54:42.535Z,77.17
2016-12-30T00:55:42.524Z,76.98
2016-12-30T00:56:42.501Z,76.98
2016-12-30T00:57:42.880Z,76.95
2016-12-30T00:58:42.476Z,77.23
2016-12-30T00:59:42.458Z,77.04
2016-12-30T01:00:42.442Z,77.04
2016-12-30T01:01:57.328Z,77.13
2016-12-30T01:02:42.404Z,77.04
2016-12-30T01:03:42.383Z,77.23
2016-12-30T01:04:42.367Z,77.17
2016-12-30T01:05:42.355Z,77.17
2016-12-30T01:06:42.369Z,76.89
2016-12-30T01:07:42.322Z,77.17
2016-12-30T01:08:42.299Z,77.13
2016-12-30T01:09:42.281Z,77.51
2016-12-30T01:10:42.269Z,77.55
2016-12-30T01:11:42.247Z,77.45
2016-12-30T01:12:42.229Z,77.45
2016-12-30T01:13:42.208Z,77.26
2016-12-30T01:14:42.194Z,77.45
2016-12-30T01:15:42.178Z,77.36
2016-12-30T01:16:42.156Z,77.45
2016-12-30T01:17:42.138Z,77.55
2016-12-30T01:18:42.130Z,77.17
2016-12-30T01:19:42.112Z,77.26
2016-12-30T01:20:42.090Z,77.26
2016-12-30T01:21:42.069Z,77.45
2016-12-30T01:22:42.060Z,77.45
2016-12-30T01:23:42.044Z,77.55
2016-12-30T01:24:42.020Z,76.89
2016-12-30T01:25:42.010Z,77.13
2016-12-30T01:26:41.989Z,77.04
2016-12-30T01:27:41.973Z,77.13
2016-12-30T01:28:41.956Z,76.95
2016-12-30T01:29:41.931Z,77.13
2016-12-30T01:30:41.919Z,77.13
2016-12-30T01:31:41.897Z,77.23
2016-12-30T01:32:41.885Z,77.61
2016-12-30T01:33:41.865Z,77.32
2016-12-30T01:34:41.847Z,77.42
2016-12-30T01:35:41.830Z,77.51
2016-12-30T01:36:42.019Z,77.32
2016-12-30T01:40:41.749Z,77.26
2016-12-30T01:41:41.726Z,77.26
2016-12-30T01:42:41.720Z,77.36
2016-12-30T01:43:41.701Z,77.45
2016-12-30T01:44:41.679Z,77.36
2016-12-30T01:45:41.658Z,77.45
2016-12-30T01:46:41.649Z,77.45
2016-12-30T01:47:41.631Z,77.55
2016-12-30T01:48:41.612Z,77.26
2016-12-30T01:49:41.591Z,77.36
2016-12-30T01:50:41.574Z,77.36
2016-12-30T01:51:41.549Z,77.26
2016-12-30T01:52:41.532Z,77.45
2016-12-30T01:53:41.523Z,77.45
2016-12-30T01:54:41.505Z,77.45
2016-12-30T01:55:41.481Z,77.36
2016-12-30T01:56:41.474Z,77.55
2016-12-30T01:57:41.451Z,77.36
2016-12-30T01:58:41.434Z,77.26
2016-12-30T01:59:41.419Z,77.42
2016-12-30T02:00:41.401Z,77.42
2016-12-30T02:01:41.375Z,77.36
2016-12-30T02:02:41.365Z,77.36
2016-12-30T02:03:41.339Z,77.55
2016-12-30T02:04:41.528Z,77.64
2016-12-30T02:05:41.513Z,77.83
2016-12-30T02:06:41.292Z,77.83
2016-12-30T02:07:41.267Z,77.64
2016-12-30T02:08:41.257Z,77.74
2016-12-30T02:09:41.239Z,77.55
2016-12-30T02:10:41.215Z,77.36
2016-12-30T02:11:41.199Z,77.74
2016-12-30T02:12:41.178Z,77.64
2016-12-30T02:13:41.163Z,77.74
2016-12-30T02:14:41.147Z,77.55
2016-12-30T02:15:41.128Z,77.74
2016-12-30T02:16:41.108Z,77.36
2016-12-30T02:17:41.092Z,77.83
2016-12-30T02:18:41.080Z,77.74
2016-12-30T02:19:41.059Z,77.74
2016-12-30T02:20:41.036Z,77.74
2016-12-30T02:21:41.026Z,77.45
2016-12-30T02:22:40.998Z,77.36
2016-12-30T02:23:40.991Z,77.55
2016-12-30T02:24:40.964Z,77.45
2016-12-30T02:25:40.955Z,77.36
2016-12-30T02:26:40.933Z,77.45
2016-12-30T02:27:40.907Z,77.55
2016-12-30T02:28:40.892Z,77.36
2016-12-30T02:29:40.875Z,77.45
2016-12-30T02:30:40.857Z,77.42
2016-12-30T02:31:40.843Z,77.45
2016-12-30T02:32:40.817Z,77.26
2016-12-30T02:33:40.808Z,77.83
2016-12-30T02:34:40.989Z,77.55
2016-12-30T02:35:40.774Z,77.64
2016-12-30T02:36:40.749Z,77.64
2016-12-30T02:37:40.732Z,77.83
2016-12-30T02:38:40.713Z,77.64
2016-12-30T02:39:40.697Z,77.64
2016-12-30T02:40:40.684Z,77.64
2016-12-30T02:41:40.665Z,77.45
2016-12-30T02:42:40.648Z,77.74
2016-12-30T02:43:40.622Z,77.74
2016-12-30T02:44:40.606Z,77.74
2016-12-30T02:45:40.589Z,77.74
2016-12-30T02:46:40.568Z,77.83
2016-12-30T02:47:40.550Z,77.74
2016-12-30T02:48:40.534Z,77.64
2016-12-30T02:49:40.521Z,77.74
2016-12-30T02:50:40.501Z,77.74
2016-12-30T02:51:40.486Z,77.64
2016-12-30T02:52:40.469Z,77.36
2016-12-30T02:53:40.442Z,77.55
2016-12-30T02:54:40.424Z,77.64
2016-12-30T02:55:40.416Z,77.64
2016-12-30T02:56:40.392Z,77.45
2016-12-30T02:57:40.376Z,77.45
2016-12-30T02:58:40.357Z,77.55
2016-12-30T02:59:40.342Z,77.64
2016-12-30T03:00:40.317Z,77.61
2016-12-30T03:01:40.299Z,77.64
2016-12-30T03:02:40.498Z,77.42
2016-12-30T03:03:40.269Z,77.45
2016-12-30T03:04:40.273Z,77.42
2016-12-30T03:05:40.234Z,77.45
2016-12-30T03:06:40.601Z,77.36
2016-12-30T03:07:40.200Z,77.42
2016-12-30T03:08:40.178Z,77.8
2016-12-30T03:09:40.157Z,77.89
2016-12-30T03:10:40.144Z,77.8
2016-12-30T03:11:40.118Z,78.17
2016-12-30T03:12:40.111Z,78.12
2016-12-30T03:13:40.086Z,78.17
2016-12-30T03:14:40.068Z,78.08
2016-12-30T03:15:40.046Z,78.12
2016-12-30T03:16:40.036Z,78.17
2016-12-30T03:17:40.012Z,78.17
2016-12-30T03:18:39.997Z,77.89
2016-12-30T03:19:39.980Z,77.98
2016-12-30T03:20:39.964Z,78.17
2016-12-30T03:21:39.950Z,77.89
2016-12-30T03:22:39.925Z,77.98
2016-12-30T03:23:39.914Z,77.7
2016-12-30T03:24:39.895Z,77.98
2016-12-30T03:25:39.879Z,78.27
2016-12-30T03:26:39.850Z,78.27
2016-12-30T03:27:39.836Z,78.45
2016-12-30T03:28:39.819Z,78.27
2016-12-30T03:29:39.800Z,78.5
2016-12-30T03:30:39.782Z,78.4
2016-12-30T03:31:39.966Z,78.4
2016-12-30T03:32:39.754Z,78.31
2016-12-30T03:33:39.732Z,78.68
2016-12-30T03:34:39.714Z,78.59
2016-12-30T03:35:39.697Z,78.45
2016-12-30T03:36:39.682Z,78.27
2016-12-30T03:37:39.666Z,78.17
2016-12-30T03:38:39.645Z,78.45
2016-12-30T03:39:39.622Z,78.36
2016-12-30T03:40:39.602Z,78.74
2016-12-30T03:41:39.586Z,78.64
2016-12-30T03:42:39.579Z,78.64
2016-12-30T03:43:39.555Z,78.74
2016-12-30T03:44:39.534Z,78.64
2016-12-30T03:45:39.523Z,78.45
2016-12-30T03:46:39.494Z,78.64
2016-12-30T03:47:39.485Z,78.36
2016-12-30T03:48:39.470Z,79.02
2016-12-30T03:49:39.447Z,79.11
2016-12-30T03:50:39.431Z,79.21
2016-12-30T03:51:39.406Z,79.21
2016-12-30T03:52:39.391Z,79.21
2016-12-30T03:53:39.377Z,79.21
2016-12-30T03:54:39.356Z,79.21
2016-12-30T03:55:39.339Z,79.11
2016-12-30T03:56:39.322Z,79.11
2016-12-30T03:57:39.304Z,78.92
2016-12-30T03:58:39.290Z,78.92
2016-12-30T03:59:39.277Z,78.92
2016-12-30T04:00:39.258Z,79.02
2016-12-30T04:01:39.231Z,79.4
2016-12-30T04:02:39.222Z,79.21
2016-12-30T04:03:39.210Z,79.3
2016-12-30T04:04:39.178Z,79.3
2016-12-30T04:05:39.171Z,79.4
2016-12-30T04:06:39.152Z,79.4
2016-12-30T04:07:39.136Z,79.21
2016-12-30T04:08:39.116Z,79.3
2016-12-30T04:09:39.090Z,79.4
2016-12-30T04:10:39.080Z,79.4
2016-12-30T04:11:39.063Z,79.4
2016-12-30T04:12:39.040Z,79.68
2016-12-30T04:13:39.020Z,79.78
2016-12-30T04:14:39.015Z,79.4
2016-12-30T04:15:38.988Z,79.59
2016-12-30T04:16:38.968Z,79.68
2016-12-30T04:17:38.947Z,79.78
2016-12-30T04:18:38.929Z,79.87
2016-12-30T04:19:38.908Z,79.68
2016-12-30T04:20:38.893Z,80.15
2016-12-30T04:21:38.882Z,80.06
2016-12-30T04:22:38.862Z,79.78
2016-12-30T04:23:38.847Z,79.87
2016-12-30T04:24:38.826Z,79.78
2016-12-30T04:25:38.804Z,79.87
2016-12-30T04:26:38.787Z,79.78
2016-12-30T04:27:38.777Z,79.87
2016-12-30T04:28:38.753Z,79.49
2016-12-30T04:29:38.726Z,79.59
2016-12-30T04:30:38.719Z,79.68
2016-12-30T04:31:38.694Z,79.68
2016-12-30T04:32:38.681Z,79.68
2016-12-30T04:33:38.652Z,79.78
2016-12-30T04:34:38.647Z,79.87
2016-12-30T04:35:38.619Z,80.15
2016-12-30T04:36:38.607Z,79.97
2016-12-30T04:37:38.581Z,79.97
2016-12-30T04:38:38.567Z,79.78
2016-12-30T04:39:38.541Z,80.15
2016-12-30T04:40:38.534Z,80.06
2016-12-30T04:41:38.507Z,80.15
2016-12-30T04:42:38.493Z,80.44
2016-12-30T04:43:38.473Z,80.44
2016-12-30T04:44:38.459Z,80.15
2016-12-30T04:45:38.441Z,80.34
2016-12-30T04:46:38.416Z,80.15
2016-12-30T04:47:38.403Z,80.34
2016-12-30T04:48:38.381Z,80.34
2016-12-30T04:49:38.356Z,80.34
2016-12-30T04:50:38.340Z,79.97
2016-12-30T04:51:38.358Z,80.25
2016-12-30T04:52:38.303Z,80.44
2016-12-30T04:53:38.292Z,80.44
2016-12-30T04:54:38.272Z,80.53
2016-12-30T04:55:38.260Z,80.53
2016-12-30T04:56:38.228Z,80.53
2016-12-30T04:57:38.220Z,80.53
2016-12-30T04:58:38.195Z,80.63
2016-12-30T04:59:38.180Z,80.25
2016-12-30T05:00:38.165Z,80.34
2016-12-30T05:01:38.145Z,80.25
2016-12-30T05:02:38.130Z,80.63
2016-12-30T05:03:38.106Z,80.63
2016-12-30T05:04:38.082Z,80.53
2016-12-30T05:05:38.075Z,80.53
2016-12-30T05:06:38.050Z,80.53
2016-12-30T05:07:38.416Z,80.53
2016-12-30T05:08:38.020Z,80.53
2016-12-30T05:09:38.002Z,80.53
2016-12-30T05:10:37.979Z,80.53
2016-12-30T05:11:37.964Z,80.63
2016-12-30T05:12:37.949Z,80.72
2016-12-30T05:13:37.924Z,80.63
2016-12-30T05:14:37.908Z,80.63
2016-12-30T05:15:37.893Z,80.82
2016-12-30T05:16:37.872Z,80.82
2016-12-30T05:17:37.857Z,80.53
2016-12-30T05:18:37.843Z,80.53
2016-12-30T05:19:37.828Z,80.77
2016-12-30T05:20:37.807Z,80.68
2016-12-30T05:21:37.780Z,80.4
2016-12-30T05:22:37.768Z,80.87
2016-12-30T05:23:37.757Z,80.68
2016-12-30T05:24:37.733Z,80.87
2016-12-30T05:25:37.707Z,80.96
2016-12-30T05:26:37.692Z,80.82
2016-12-30T05:27:37.683Z,80.91
2016-12-30T05:28:37.657Z,81.1
2016-12-30T05:29:37.647Z,80.82
2016-12-30T05:30:37.620Z,80.91
2016-12-30T05:31:37.604Z,81.01
2016-12-30T05:32:37.585Z,80.91
2016-12-30T05:33:37.576Z,80.91
2016-12-30T05:34:37.547Z,81.05
2016-12-30T05:35:37.537Z,81.1
2016-12-30T05:36:37.520Z,80.82
2016-12-30T05:37:37.505Z,80.82
2016-12-30T05:38:37.479Z,80.72
2016-12-30T05:39:37.463Z,80.91
2016-12-30T05:40:37.450Z,80.96
2016-12-30T05:41:37.434Z,80.87
2016-12-30T05:42:37.417Z,81.24
2016-12-30T05:43:37.390Z,81.05
2016-12-30T05:44:37.373Z,81.05
2016-12-30T05:45:37.354Z,80.96
2016-12-30T05:46:37.345Z,81.15
2016-12-30T05:47:37.318Z,81.15
2016-12-30T05:48:37.302Z,81.15
2016-12-30T05:49:37.281Z,81.24
2016-12-30T05:50:37.270Z,81.24
2016-12-30T05:51:37.249Z,81.43
2016-12-30T05:52:37.235Z,81.43
2016-12-30T05:53:37.218Z,81.43
2016-12-30T05:54:37.200Z,81.15
2016-12-30T05:55:37.179Z,81.05
2016-12-30T05:56:37.159Z,80.96
2016-12-30T05:57:37.144Z,80.96
2016-12-30T05:58:37.132Z,81.24
2016-12-30T05:59:37.118Z,81.24
2016-12-30T06:00:37.097Z,81.24
2016-12-30T06:01:37.076Z,81.34
2016-12-30T06:02:37.059Z,81.15
2016-12-30T06:03:37.040Z,81.15
2016-12-30T06:04:37.015Z,81.53
2016-12-30T06:05:37.007Z,81.43
2016-12-30T06:06:36.979Z,81.24
2016-12-30T06:07:36.961Z,81.53
2016-12-30T06:08:36.956Z,81.34
2016-12-30T06:09:36.926Z,81.15
2016-12-30T06:10:36.914Z,81.72
2016-12-30T06:11:36.894Z,81.05
2016-12-30T06:12:36.881Z,81.62
2016-12-30T06:13:36.853Z,81.72
2016-12-30T06:14:36.845Z,81.62
2016-12-30T06:15:36.819Z,81.72
2016-12-30T06:16:36.803Z,81.72
2016-12-30T06:17:36.790Z,81.62
2016-12-30T06:18:36.762Z,81.62
2016-12-30T06:19:36.749Z,81.34
2016-12-30T06:20:36.736Z,81.91
2016-12-30T06:21:36.714Z,81.91
2016-12-30T06:22:36.695Z,81.62
2016-12-30T06:23:36.672Z,81.81
2016-12-30T06:24:36.659Z,81.72
2016-12-30T06:25:36.645Z,81.81
2016-12-30T06:26:36.625Z,81.62
2016-12-30T06:27:36.607Z,81.53
2016-12-30T06:28:36.589Z,81.81
2016-12-30T06:29:36.567Z,81.95
2016-12-30T06:30:36.541Z,81.67
2016-12-30T06:31:36.563Z,82.04
2016-12-30T06:32:36.509Z,82.04
2016-12-30T06:33:36.490Z,82.04
2016-12-30T06:34:36.469Z,82.04
2016-12-30T06:35:36.462Z,82.04
2016-12-30T06:36:36.441Z,82
2016-12-30T06:37:36.423Z,82
2016-12-30T06:38:36.396Z,82.57
2016-12-30T06:39:36.388Z,82.66
2016-12-30T06:40:36.361Z,82.47
2016-12-30T06:41:36.344Z,82.47
2016-12-30T06:42:36.330Z,82.57
2016-12-30T06:43:36.316Z,82.38
2016-12-30T06:44:36.297Z,82.38
2016-12-30T06:45:36.275Z,82.57
2016-12-30T06:46:36.250Z,82.28
2016-12-30T06:47:36.236Z,82.28
2016-12-30T06:48:36.213Z,82.38
2016-12-30T06:49:36.198Z,82.47
2016-12-30T06:50:36.187Z,82.28
2016-12-30T06:51:36.165Z,82.38
2016-12-30T06:52:36.143Z,82.7
2016-12-30T06:53:36.130Z,82.7
2016-12-30T06:54:36.109Z,82.8
2016-12-30T06:55:36.087Z,82.61
2016-12-30T06:56:36.073Z,82.8
2016-12-30T06:57:36.054Z,82.7
2016-12-30T06:58:36.036Z,82.7
2016-12-30T06:59:36.024Z,82.7
2016-12-30T07:00:36.003Z,82.61
2016-12-30T07:01:35.983Z,82.8
2016-12-30T07:02:35.969Z,83.08
2016-12-30T07:03:35.939Z,83.08
2016-12-30T07:04:35.925Z,82.8
2016-12-30T07:05:35.909Z,83.08
2016-12-30T07:06:35.885Z,83.17
2016-12-30T07:07:35.871Z,82.99
2016-12-30T07:08:35.850Z,82.99
2016-12-30T07:09:35.836Z,82.99
2016-12-30T07:10:35.815Z,82.8
2016-12-30T07:11:35.802Z,82.99
2016-12-30T07:12:35.776Z,83.27
2016-12-30T07:13:35.754Z,83.55
2016-12-30T07:14:35.735Z,83.5
2016-12-30T07:15:35.725Z,83.46
2016-12-30T07:16:35.703Z,83.46
2016-12-30T07:17:35.688Z,83.46
2016-12-30T07:18:35.674Z,83.27
2016-12-30T07:19:35.654Z,83.31
2016-12-30T07:20:35.639Z,83.31
2016-12-30T07:21:35.615Z,83.31
2016-12-30T07:22:35.601Z,83.31
2016-12-30T07:23:35.582Z,83.4
2016-12-30T07:24:35.561Z,83.5
2016-12-30T07:25:35.540Z,83.5
2016-12-30T07:26:35.529Z,83.31
2016-12-30T07:27:35.501Z,83.5
2016-12-30T07:28:35.495Z,83.22
2016-12-30T07:29:35.475Z,83.69
2016-12-30T07:30:35.458Z,83.59
2016-12-30T07:31:35.440Z,83.69
2016-12-30T07:32:35.418Z,83.59
2016-12-30T07:33:35.409Z,84.11
2016-12-30T07:34:35.383Z,84.11
2016-12-30T07:35:35.364Z,83.73
2016-12-30T07:36:35.341Z,83.92
2016-12-30T07:37:35.331Z,84.2
2016-12-30T07:38:35.314Z,84.01
2016-12-30T07:39:35.300Z,84.2
2016-12-30T07:40:35.276Z,84.11
2016-12-30T07:41:35.265Z,83.83
2016-12-30T07:42:35.244Z,84.01
2016-12-30T07:43:35.231Z,83.97
2016-12-30T07:44:35.203Z,83.92
2016-12-30T07:45:35.195Z,83.92
2016-12-30T07:46:35.173Z,84.2
2016-12-30T07:47:35.161Z,84.11
2016-12-30T07:48:35.140Z,84.06
2016-12-30T07:49:35.120Z,84.53
2016-12-30T07:50:35.110Z,84.67
2016-12-30T07:51:35.091Z,84.58
2016-12-30T07:52:35.083Z,84.39
2016-12-30T07:53:35.055Z,84.67
2016-12-30T07:54:35.049Z,84.67
2016-12-30T07:55:35.036Z,84.48
2016-12-30T07:56:35.018Z,84.58
2016-12-30T07:57:35.202Z,84.48
2016-12-30T07:58:34.987Z,84.52
2016-12-30T07:59:34.969Z,84.33
2016-12-30T08:00:34.955Z,84.1
2016-12-30T08:01:34.932Z,84.25
2016-12-30T08:02:34.914Z,84.16
2016-12-30T08:03:34.905Z,84.48
2016-12-30T08:04:34.890Z,84.39
2016-12-30T08:05:34.878Z,84.52
2016-12-30T08:06:34.864Z,84.52
2016-12-30T08:07:34.848Z,84.81
2016-12-30T08:08:34.823Z,84.33
2016-12-30T08:09:34.818Z,84.33
2016-12-30T08:10:34.804Z,84.33
2016-12-30T08:11:34.780Z,84.05
2016-12-30T08:12:34.767Z,84.14
2016-12-30T08:13:34.755Z,84.05
2016-12-30T08:14:34.745Z,84.42
2016-12-30T08:15:34.721Z,84.71
2016-12-30T08:16:34.707Z,84.75
2016-12-30T08:17:34.690Z,84.85
2016-12-30T08:18:34.689Z,84.7
2016-12-30T08:19:34.664Z,84.42
2016-12-30T08:20:34.646Z,84.61
2016-12-30T08:21:34.642Z,84.42
2016-12-30T08:22:34.617Z,84.42
2016-12-30T08:23:34.604Z,84.42
2016-12-30T08:24:34.600Z,84.38
2016-12-30T08:25:34.582Z,84.32
2016-12-30T08:26:34.573Z,84.23
2016-12-30T08:27:34.551Z,84.27
2016-12-30T08:28:34.543Z,84.23
2016-12-30T08:29:34.530Z,84.23
2016-12-30T08:30:34.507Z,84.23
2016-12-30T08:31:34.500Z,84.13
2016-12-30T08:32:34.478Z,84.13
2016-12-30T08:33:34.473Z,83.94
2016-12-30T08:34:34.451Z,83.81
2016-12-30T08:35:34.447Z,84.04
2016-12-30T08:36:34.428Z,84.09
2016-12-30T08:37:34.416Z,84.09
2016-12-30T08:38:34.398Z,83.94
2016-12-30T08:39:34.390Z,83.81
2016-12-30T08:40:34.374Z,83.1
2016-12-30T08:41:34.359Z,83.67
2016-12-30T08:42:34.349Z,83.48
2016-12-30T08:43:34.334Z,83.67
2016-12-30T08:44:34.321Z,83.71
2016-12-30T08:45:34.310Z,83.62
2016-12-30T08:46:34.298Z,83.52
2016-12-30T08:47:34.275Z,83.9
2016-12-30T08:48:34.263Z,84.04
2016-12-30T08:49:34.252Z,83.75
2016-12-30T08:50:34.236Z,83.56
2016-12-30T08:51:34.225Z,83.71
2016-12-30T08:52:34.209Z,83.52
2016-12-30T08:53:34.198Z,83.47
2016-12-30T08:54:34.189Z,83.47
2016-12-30T08:55:34.174Z,83.66
2016-12-30T08:56:34.157Z,83.47
2016-12-30T08:57:34.137Z,83.56
2016-12-30T08:58:34.129Z,83.47
2016-12-30T08:59:34.120Z,83.61
2016-12-30T09:00:34.104Z,83.61
2016-12-30T09:01:34.097Z,83.61
2016-12-30T09:02:34.075Z,83.61
2016-12-30T09:03:34.075Z,84.08
2016-12-30T09:04:34.048Z,83.89
2016-12-30T09:05:34.035Z,83.23
2016-12-30T09:06:34.028Z,83.28
2016-12-30T09:07:34.016Z,83.89
2016-12-30T09:08:34.001Z,83.8
2016-12-30T09:09:33.989Z,83.7
2016-12-30T09:10:33.975Z,83.46
2016-12-30T09:11:33.959Z,83.23
2016-12-30T09:12:33.954Z,83.17
2016-12-30T09:13:33.936Z,83.17
2016-12-30T09:14:33.929Z,83.27
2016-12-30T09:15:33.911Z,83.36
2016-12-30T09:16:33.898Z,83.36
2016-12-30T09:17:33.892Z,82.98
2016-12-30T09:18:33.874Z,83.04
2016-12-30T09:19:33.858Z,82.94
2016-12-30T09:20:33.852Z,83.04
2016-12-30T09:21:33.846Z,83.13
2016-12-30T09:22:33.823Z,83.09
2016-12-30T09:23:33.811Z,83
2016-12-30T09:24:33.794Z,83.23
2016-12-30T09:25:33.781Z,83.27
2016-12-30T09:26:33.775Z,83.31
2016-12-30T09:27:33.762Z,83.4
2016-12-30T09:28:33.749Z,83.12
2016-12-30T09:29:33.736Z,83.46
2016-12-30T09:30:33.720Z,83.31
2016-12-30T09:31:33.721Z,83.5
2016-12-30T09:32:33.701Z,83.22
2016-12-30T09:33:33.688Z,82.84
2016-12-30T09:34:33.686Z,82.6
2016-12-30T09:35:33.673Z,83.08
2016-12-30T09:36:33.652Z,83.12
2016-12-30T09:37:33.640Z,83.12
2016-12-30T09:38:33.629Z,83.16
2016-12-30T09:39:33.623Z,83.16
2016-12-30T09:40:33.605Z,83.16
2016-12-30T09:41:33.590Z,82.97
2016-12-30T09:42:33.583Z,82.88
2016-12-30T09:43:33.567Z,82.69
2016-12-30T09:44:33.560Z,82.93
2016-12-30T09:45:33.546Z,82.84
2016-12-30T09:46:33.538Z,83.07
2016-12-30T09:47:33.525Z,82.17
2016-12-30T09:48:33.519Z,81.99
2016-12-30T09:49:33.524Z,81.86
2016-12-30T09:50:33.494Z,82.09
2016-12-30T09:51:33.484Z,82.37
2016-12-30T09:52:33.467Z,82.18
2016-12-30T09:53:33.457Z,81.9
2016-12-30T09:54:33.443Z,82.13
2016-12-30T09:55:33.431Z,82.32
2016-12-30T09:56:33.423Z,82.23
2016-12-30T09:57:33.410Z,82.23
2016-12-30T09:58:33.397Z,82.23
2016-12-30T09:59:33.381Z,82.08
2016-12-30T10:00:33.371Z,82.27
2016-12-30T10:01:33.366Z,82.36
2016-12-30T10:02:33.344Z,82.31
2016-12-30T10:03:33.344Z,82.08
2016-12-30T10:04:33.333Z,82.08
2016-12-30T10:05:33.310Z,81.88
2016-12-30T10:06:33.306Z,82.36
2016-12-30T10:07:33.293Z,81.74
2016-12-30T10:08:33.284Z,82.08
2016-12-30T10:09:33.267Z,81.51
2016-12-30T10:10:33.262Z,81.79
2016-12-30T10:11:33.242Z,81.75
2016-12-30T10:12:33.240Z,81.66
2016-12-30T10:13:33.225Z,81.98
2016-12-30T10:14:33.207Z,81.6
2016-12-30T10:15:33.202Z,81.6
2016-12-30T10:16:33.193Z,81.7
2016-12-30T10:17:33.189Z,81.45
2016-12-30T10:18:33.168Z,81.84
2016-12-30T10:19:33.153Z,82.07
2016-12-30T10:20:33.139Z,82.01
2016-12-30T10:21:33.139Z,81.63
2016-12-30T10:22:33.123Z,81.92
2016-12-30T10:23:33.105Z,81.54
2016-12-30T10:24:33.093Z,81.82
2016-12-30T10:25:33.095Z,81.82
2016-12-30T10:26:33.079Z,81.54
2016-12-30T10:27:33.065Z,81.59
2016-12-30T10:28:33.051Z,81.35
2016-12-30T10:29:33.050Z,81.4
2016-12-30T10:30:33.090Z,81.44
2016-12-30T10:31:33.024Z,81.44
2016-12-30T10:32:33.021Z,81.4
2016-12-30T10:33:32.999Z,81.4
2016-12-30T10:34:32.998Z,81.02
2016-12-30T10:35:32.976Z,80.98
2016-12-30T10:36:32.978Z,80.98
2016-12-30T10:37:32.954Z,81.12
2016-12-30T10:38:32.946Z,81.3
2016-12-30T10:39:32.938Z,81.02
2016-12-30T10:40:32.925Z,81.16
2016-12-30T10:41:32.910Z,81.25
2016-12-30T10:42:32.903Z,80.74
2016-12-30T10:43:32.891Z,81.02
2016-12-30T10:44:32.880Z,81.02
2016-12-30T10:45:32.867Z,80.83
2016-12-30T10:46:32.859Z,80.55
2016-12-30T10:47:32.851Z,80.32
2016-12-30T10:48:32.846Z,80.6
2016-12-30T10:49:32.831Z,80.37
2016-12-30T10:50:32.817Z,80.37
2016-12-30T10:51:32.812Z,80.37
2016-12-30T10:52:32.800Z,80.88
2016-12-30T10:53:32.788Z,80.41
2016-12-30T10:54:32.772Z,80.51
2016-12-30T10:55:32.800Z,80.22
2016-12-30T10:56:32.749Z,80.18
2016-12-30T10:57:32.745Z,79.99
2016-12-30T10:58:32.735Z,79.8
2016-12-30T10:59:32.724Z,80.18
2016-12-30T11:00:32.718Z,80.27
2016-12-30T11:01:32.702Z,80.52
2016-12-30T11:02:32.689Z,80.18
2016-12-30T11:03:32.682Z,80.08
2016-12-30T11:04:32.674Z,79.84
2016-12-30T11:05:32.656Z,80.22
2016-12-30T11:06:32.651Z,80.26
2016-12-30T11:07:32.639Z,80.26
2016-12-30T11:08:32.635Z,80.21
2016-12-30T11:09:32.615Z,80.11
2016-12-30T11:10:32.606Z,80.34
2016-12-30T11:11:32.593Z,79.83
2016-12-30T11:12:32.586Z,79.83
2016-12-30T11:13:32.565Z,79.92
2016-12-30T11:14:32.558Z,79.73
2016-12-30T11:15:32.550Z,79.41
2016-12-30T11:16:32.545Z,79.74
2016-12-30T11:17:32.525Z,79.46
2016-12-30T11:18:32.511Z,79.36
2016-12-30T11:19:32.503Z,79.69
2016-12-30T11:20:32.516Z,79.36
2016-12-30T11:21:32.477Z,79.08
2016-12-30T11:22:32.463Z,79.61
2016-12-30T11:23:32.456Z,79.08
2016-12-30T11:24:32.441Z,79.46
2016-12-30T11:25:32.437Z,79.27
2016-12-30T11:26:32.421Z,78.83
2016-12-30T11:27:32.411Z,79.03
2016-12-30T11:28:32.397Z,79.03
2016-12-30T11:29:32.386Z,79.12
2016-12-30T11:30:32.374Z,79.22
2016-12-30T11:31:32.369Z,79.16
2016-12-30T11:32:32.361Z,78.64
2016-12-30T11:33:32.374Z,78.89
2016-12-30T11:34:32.333Z,78.56
2016-12-30T11:35:32.325Z,78.85
2016-12-30T11:36:32.318Z,78.89
2016-12-30T11:37:32.303Z,78.28
2016-12-30T11:38:32.293Z,78.85
2016-12-30T11:39:32.279Z,78.8
2016-12-30T11:40:32.268Z,78.8
2016-12-30T11:41:32.260Z,79.12
2016-12-30T11:42:32.239Z,78.93
2016-12-30T11:43:32.237Z,78.17
2016-12-30T11:44:32.220Z,78.27
2016-12-30T11:45:32.215Z,78.55
2016-12-30T11:46:32.194Z,78.36
2016-12-30T11:47:32.186Z,78.64
2016-12-30T11:48:32.211Z,78.42
2016-12-30T11:49:32.171Z,78.64
2016-12-30T11:50:32.149Z,78.08
2016-12-30T11:51:32.148Z,78.03
2016-12-30T11:52:32.133Z,77.84
2016-12-30T11:53:32.119Z,77.71
2016-12-30T11:54:32.103Z,78.47
2016-12-30T11:55:32.099Z,78.7
2016-12-30T11:56:32.090Z,78.36
2016-12-30T11:57:32.080Z,78.11
2016-12-30T11:58:32.075Z,78.11
2016-12-30T11:59:32.047Z,78.21
2016-12-30T12:00:32.041Z,78.17
2016-12-30T12:01:32.027Z,77.84
2016-12-30T12:02:32.021Z,78
2016-12-30T12:03:32.011Z,77.71
2016-12-30T12:04:32.001Z,77.71
2016-12-30T12:05:31.991Z,77.43
2016-12-30T12:06:31.970Z,77.58
2016-12-30T12:07:31.967Z,77.67
2016-12-30T12:08:31.952Z,78.15
2016-12-30T12:09:31.949Z,77.81
2016-12-30T12:10:31.926Z,78
2016-12-30T12:11:31.924Z,78
2016-12-30T12:12:31.904Z,77.81
2016-12-30T12:13:31.893Z,77.94
2016-12-30T12:14:31.886Z,78.27
2016-12-30T12:15:31.885Z,78.11
2016-12-30T12:16:31.859Z,77.92
2016-12-30T12:17:31.847Z,78.21
2016-12-30T12:18:31.850Z,78.11
2016-12-30T12:19:31.832Z,78.06
2016-12-30T12:20:31.856Z,77.77
2016-12-30T12:21:31.803Z,78.02
2016-12-30T12:22:31.792Z,77.51
2016-12-30T12:23:31.790Z,77.66
2016-12-30T12:24:31.780Z,77.14
2016-12-30T12:25:31.764Z,77.14
2016-12-30T12:26:31.750Z,77.24
2016-12-30T12:27:31.737Z,77.47
2016-12-30T12:28:31.728Z,77.37
2016-12-30T12:29:31.727Z,77.47
2016-12-30T12:30:31.710Z,76.99
2016-12-30T12:31:31.701Z,76.99
2016-12-30T12:32:31.687Z,77.14
2016-12-30T12:33:31.679Z,77.14
2016-12-30T12:34:31.656Z,76.95
2016-12-30T12:35:31.654Z,76.95
2016-12-30T12:36:31.639Z,76.86
2016-12-30T12:37:31.631Z,76.63
2016-12-30T12:38:31.609Z,76.63
2016-12-30T12:39:31.606Z,77.11
2016-12-30T12:40:31.595Z,76.73
2016-12-30T12:41:31.582Z,76.63
2016-12-30T12:42:31.572Z,76.73
2016-12-30T12:43:31.553Z,76.92
2016-12-30T12:44:31.550Z,76.78
2016-12-30T12:45:31.532Z,76.92
2016-12-30T12:46:31.519Z,77.05
2016-12-30T12:47:31.507Z,77.62
2016-12-30T12:48:31.497Z,77.66
2016-12-30T12:49:31.491Z,77.51
2016-12-30T12:50:31.474Z,77.03
2016-12-30T12:51:31.469Z,76.75
2016-12-30T12:52:31.452Z,77.22
2016-12-30T12:53:31.436Z,77.03
2016-12-30T12:54:31.426Z,77.26
2016-12-30T12:55:31.426Z,77.26
2016-12-30T12:56:31.412Z,77.2
2016-12-30T12:57:31.400Z,77.11
2016-12-30T12:58:31.392Z,76.92
2016-12-30T12:59:31.377Z,76.82
2016-12-30T13:00:31.375Z,77.01
2016-12-30T13:01:31.357Z,77.2